Newcastle, Nebraska
Current Conditions -  °F | °C
As of 9:55 AM on Thursday 30 Oct 2014 (Local Time) from KLCG Reporting Station
Clear Clear  
Wind Chill: 43°   Ceiling: Unl
Heat Index: 49°   Visibility: 10mi
Dew Point: 38°   Wind: 16mph
Humidity: 65%   Direction: 320°NW
Pressure: 30.08"   Gusts: 23mph
Location:  42.65°N, 96.87°W
Report Text: KLCG 301455Z AUTO 32014G20KT 10SM CLR 10/03 A3008 RMK AO2 T00960032
Loading
Personal Weather Stations






























Interactive Weather Map
Tropical Storm Tracking
New forecast layout! Learn more

10-Day Weather Forecast

Advertisements
Track Severe Weather on mobile